Time;durP1;ratioP1;P1;durP2;ratioP2;P2;SDS_P1;SDS_P2;PMS_P1;PMS_P2;Temp;Humidity;BMP_temperature;BMP_pressure;BME280_temperature;BME280_humidity;BME280_pressure;Samples;Min_cycle;Max_cycle;Signal;HPM_P1;HPM_P2
2023/01/25 00:00:40;;;;;;;;;;;;;;;5.00;91.98;96220.34;5032949;28;1037;-52
2023/01/25 00:03:06;;;;;;;;;;;;;;;4.98;91.26;96224.91;5033105;28;1981;-51
2023/01/25 00:05:33;;;;;;;;;;;;;;;5.09;89.40;96225.06;5032902;28;1890;-51
2023/01/25 00:07:59;;;;;;;;;;;;;;;5.16;89.72;96226.34;5033057;28;1042;-52
2023/01/25 00:10:25;;;;;;;;;;;;;;;5.11;89.37;96228.44;5031711;28;938;-52
2023/01/25 00:12:51;;;;;;;;;;;;;;;4.99;90.05;96231.88;5032946;28;1044;-52
2023/01/25 00:15:17;;;;;;;;;;;;;;;4.88;90.69;96230.81;5033152;28;1371;-52
2023/01/25 00:17:43;;;;;;;;;;;;;;;4.82;91.33;96228.56;5032939;28;1001;-52
2023/01/25 00:20:09;;;;;;;;;;;;;;;4.93;91.57;96232.28;5032939;28;982;-52
2023/01/25 00:22:35;;;;;;;;;;;;;;;5.02;91.50;96231.69;5032893;28;1032;-52
2023/01/25 00:25:01;;;;;;;;;;;;;;;5.01;89.70;96235.31;5032715;28;1907;-52
2023/01/25 00:27:27;;;;;;;;;;;;;;;5.12;88.32;96232.78;5032405;28;1132;-52
2023/01/25 00:29:53;;;;;;;;;;;;;;;5.24;87.35;96234.63;5033078;28;969;-52
2023/01/25 00:32:19;;;;;;;;;;;;;;;5.22;86.91;96225.94;5035720;28;1661;-52
2023/01/25 00:34:46;;;;;;;;;;;;;;;5.20;87.82;96227.00;5036064;28;1233;-52
2023/01/25 00:37:29;;;;;;;;;;;;;;;5.17;88.30;96230.69;5036393;28;966;-52
2023/01/25 00:39:55;;;;;;;;;;;;;;;5.19;87.56;96230.59;5036222;28;985;-52
2023/01/25 00:42:22;;;;;;;;;;;;;;;5.16;87.63;96222.81;5036392;28;1061;-52
2023/01/25 00:44:48;;;;;;;;;;;;;;;5.12;87.21;96224.00;5036115;28;1902;-52
2023/01/25 00:47:14;;;;;;;;;;;;;;;5.12;87.47;96222.19;5036116;28;1104;-51
2023/01/25 00:49:41;;;;;;;;;;;;;;;5.12;87.41;96218.69;5035952;28;1050;-51
2023/01/25 00:52:07;;;;;;;;;;;;;;;5.07;87.82;96219.00;5036016;28;1109;-51
2023/01/25 00:54:34;;;;;;;;;;;;;;;5.07;88.22;96219.84;5035853;28;1076;-52
2023/01/25 00:57:00;;;;;;;;;;;;;;;5.13;86.95;96225.69;5036144;28;977;-52
2023/01/25 00:59:26;;;;;;;;;;;;;;;5.05;87.04;96219.09;5035987;28;1032;-51
2023/01/25 01:01:52;;;;;;;;;;;;;;;5.01;88.42;96227.38;5035991;28;977;-52
2023/01/25 01:04:19;;;;;;;;;;;;;;;5.01;88.62;96230.84;5035841;28;1910;-52
2023/01/25 01:06:45;;;;;;;;;;;;;;;5.10;87.85;96218.78;5035763;28;1088;-52
2023/01/25 01:09:13;;;;;;;;;;;;;;;5.16;87.22;96215.75;5035575;28;1120;-52
2023/01/25 01:11:39;;;;;;;;;;;;;;;5.15;87.83;96222.00;5035618;28;1960;-51
2023/01/25 01:14:05;;;;;;;;;;;;;;;5.18;87.19;96215.63;5035800;28;1021;-52
2023/01/25 01:16:31;;;;;;;;;;;;;;;5.12;87.66;96219.53;5035665;28;981;-52
2023/01/25 01:18:57;;;;;;;;;;;;;;;5.06;87.57;96212.00;5035558;28;1092;-52
2023/01/25 01:21:23;;;;;;;;;;;;;;;5.06;87.56;96215.47;5034250;28;997;-51
2023/01/25 01:23:49;;;;;;;;;;;;;;;5.09;87.14;96202.03;5035376;28;1907;-52
2023/01/25 01:26:18;;;;;;;;;;;;;;;5.03;86.99;96198.97;5035667;28;1001;-52
2023/01/25 01:28:44;;;;;;;;;;;;;;;5.09;86.46;96206.50;5035514;28;1190;-52
2023/01/25 01:31:15;;;;;;;;;;;;;;;5.06;86.28;96209.34;5034083;28;1578;-52
2023/01/25 01:33:41;;;;;;;;;;;;;;;4.97;85.14;96210.81;5035111;28;1082;-52
2023/01/25 01:36:12;;;;;;;;;;;;;;;4.97;85.88;96209.94;5035304;28;1251;-51
2023/01/25 01:38:38;;;;;;;;;;;;;;;5.04;85.86;96206.78;5035117;28;974;-51
2023/01/25 01:41:04;;;;;;;;;;;;;;;5.12;85.52;96197.47;5035302;28;974;-51
2023/01/25 01:43:30;;;;;;;;;;;;;;;5.13;84.92;96196.53;5034887;28;1902;-52
2023/01/25 01:45:58;;;;;;;;;;;;;;;5.02;85.76;96194.59;5034990;28;1104;-51
2023/01/25 01:48:29;;;;;;;;;;;;;;;4.99;86.16;96192.13;5034914;28;1021;-52
2023/01/25 01:50:57;;;;;;;;;;;;;;;4.95;86.29;96206.53;5034991;28;973;-51
2023/01/25 01:53:24;;;;;;;;;;;;;;;5.01;85.55;96196.41;5034782;28;1053;-51
2023/01/25 01:55:51;;;;;;;;;;;;;;;4.89;85.16;96191.91;5035028;28;1021;-51
2023/01/25 01:58:18;;;;;;;;;;;;;;;4.88;86.23;96193.69;5034938;28;1052;-52
2023/01/25 02:00:44;;;;;;;;;;;;;;;4.93;85.03;96196.03;5034750;28;1590;-51
2023/01/25 02:03:11;;;;;;;;;;;;;;;4.94;85.67;96199.56;5034630;28;1966;-51
2023/01/25 02:05:39;;;;;;;;;;;;;;;4.91;85.63;96197.94;5034574;28;981;-51
2023/01/25 02:08:07;;;;;;;;;;;;;;;4.88;84.65;96193.69;5034641;28;1113;-51
2023/01/25 02:10:35;;;;;;;;;;;;;;;4.87;85.55;96189.34;5034618;28;971;-52
2023/01/25 02:13:01;;;;;;;;;;;;;;;4.86;85.99;96187.66;5034685;28;1038;-52
2023/01/25 02:15:32;;;;;;;;;;;;;;;4.92;85.66;96194.34;5034493;28;1084;-52
2023/01/25 02:17:58;;;;;;;;;;;;;;;4.93;85.42;96189.91;5034574;28;978;-52
2023/01/25 02:20:36;;;;;;;;;;;;;;;4.91;85.09;96197.09;5034313;28;1093;-53
2023/01/25 02:23:14;;;;;;;;;;;;;;;4.96;84.56;96195.00;5034201;28;1906;-53
2023/01/25 02:25:40;;;;;;;;;;;;;;;4.92;85.60;96202.31;5034189;28;1065;-51
2023/01/25 02:28:13;;;;;;;;;;;;;;;4.89;86.68;96197.19;5034345;28;1048;-51
2023/01/25 02:30:40;;;;;;;;;;;;;;;4.88;86.25;96193.69;5034168;28;1036;-51
2023/01/25 02:33:06;;;;;;;;;;;;;;;4.87;86.28;96196.44;5034152;28;1613;-52
2023/01/25 02:35:55;;;;;;;;;;;;;;;4.77;86.35;96198.00;5034038;28;1037;-51
2023/01/25 02:38:21;;;;;;;;;;;;;;;4.68;86.83;96188.84;5026084;28;1640;-51
2023/01/25 02:40:59;;;;;;;;;;;;;;;4.64;87.61;96190.84;5034034;28;1092;-51
2023/01/25 02:43:28;;;;;;;;;;;;;;;4.66;87.13;96186.28;5034064;28;1902;-51
2023/01/25 02:45:59;;;;;;;;;;;;;;;4.69;87.65;96190.56;5034159;28;1008;-51
2023/01/25 02:48:25;;;;;;;;;;;;;;;4.63;87.87;96186.50;5033833;28;907;-51
2023/01/25 02:50:51;;;;;;;;;;;;;;;4.48;89.50;96187.50;5033954;28;1028;-51
2023/01/25 02:53:17;;;;;;;;;;;;;;;4.45;90.19;96185.88;5033547;28;1020;-51
2023/01/25 02:55:43;;;;;;;;;;;;;;;4.49;89.46;96183.88;5033597;28;1013;-51
2023/01/25 02:58:09;;;;;;;;;;;;;;;4.44;90.47;96186.84;5033934;28;1184;-50
2023/01/25 03:00:35;;;;;;;;;;;;;;;4.37;90.02;96184.69;5033633;28;1120;-52
2023/01/25 03:03:01;;;;;;;;;;;;;;;4.21;91.21;96183.00;5033789;28;1910;-51
2023/01/25 03:05:27;;;;;;;;;;;;;;;4.05;92.07;96183.13;5033494;28;1148;-51
2023/01/25 03:07:53;;;;;;;;;;;;;;;4.00;92.08;96179.06;5032376;28;1022;-51
2023/01/25 03:10:19;;;;;;;;;;;;;;;3.99;92.13;96182.66;5033465;28;1105;-51
2023/01/25 03:12:45;;;;;;;;;;;;;;;4.02;92.53;96179.81;5033511;28;1124;-51
2023/01/25 03:15:11;;;;;;;;;;;;;;;4.18;92.43;96177.91;5032304;28;1642;-51
2023/01/25 03:17:37;;;;;;;;;;;;;;;4.30;91.38;96177.09;5033329;28;1038;-51
2023/01/25 03:20:05;;;;;;;;;;;;;;;4.38;91.02;96186.38;5033426;28;1199;-51
2023/01/25 03:22:31;;;;;;;;;;;;;;;4.41;90.41;96184.38;5033352;28;1049;-51
2023/01/25 03:24:57;;;;;;;;;;;;;;;4.21;91.87;96179.50;5033304;28;1910;-51
2023/01/25 03:27:23;;;;;;;;;;;;;;;4.02;92.55;96177.16;5033290;28;972;-51
2023/01/25 03:29:49;;;;;;;;;;;;;;;3.89;92.48;96180.59;5032327;28;1041;-51
2023/01/25 03:32:15;;;;;;;;;;;;;;;3.89;93.28;96177.09;5033291;28;1553;-51
2023/01/25 03:34:41;;;;;;;;;;;;;;;4.04;92.85;96180.56;5032992;28;1244;-51
2023/01/25 03:37:07;;;;;;;;;;;;;;;4.14;92.21;96172.91;5033380;28;1016;-51
2023/01/25 03:39:33;;;;;;;;;;;;;;;4.18;92.46;96175.25;5033140;28;1042;-51
2023/01/25 03:41:59;;;;;;;;;;;;;;;4.10;91.75;96177.56;5033209;28;1037;-51
2023/01/25 03:44:25;;;;;;;;;;;;;;;4.04;92.07;96178.78;5033279;28;1910;-51
2023/01/25 03:46:51;;;;;;;;;;;;;;;3.95;92.53;96179.34;5032136;28;978;-51
2023/01/25 03:49:18;;;;;;;;;;;;;;;3.87;93.06;96178.94;5033323;28;1052;-51
2023/01/25 03:51:44;;;;;;;;;;;;;;;3.85;92.74;96181.72;5033053;28;1117;-51
2023/01/25 03:54:10;;;;;;;;;;;;;;;4.03;92.78;96182.34;5031906;28;1045;-52
2023/01/25 03:56:36;;;;;;;;;;;;;;;4.08;92.31;96182.94;5033004;28;1033;-52
2023/01/25 03:59:02;;;;;;;;;;;;;;;4.11;92.17;96179.22;5033271;28;1060;-52
2023/01/25 04:01:28;;;;;;;;;;;;;;;4.14;91.66;96178.22;5032991;28;973;-52
2023/01/25 04:03:54;;;;;;;;;;;;;;;4.16;91.97;96178.97;5032921;28;1914;-52
2023/01/25 04:06:20;;;;;;;;;;;;;;;4.20;91.44;96183.94;5034632;28;1049;-52
2023/01/25 04:08:47;;;;;;;;;;;;;;;4.24;91.56;96179.31;5036862;28;965;-52
2023/01/25 04:11:13;;;;;;;;;;;;;;;4.16;91.46;96186.91;5036823;28;962;-52
2023/01/25 04:13:39;;;;;;;;;;;;;;;4.13;90.88;96184.44;5036687;28;1131;-52
2023/01/25 04:16:06;;;;;;;;;;;;;;;3.90;91.96;96181.41;5036908;28;1036;-52
2023/01/25 04:18:32;;;;;;;;;;;;;;;3.74;92.17;96188.59;5036781;28;1040;-52
2023/01/25 04:20:58;;;;;;;;;;;;;;;3.72;92.62;96194.84;5036610;28;1082;-52
2023/01/25 04:23:25;;;;;;;;;;;;;;;3.76;92.45;96190.22;5036480;28;1990;-51
2023/01/25 04:25:52;;;;;;;;;;;;;;;3.80;92.42;96180.31;5036499;28;1033;-52
2023/01/25 04:28:18;;;;;;;;;;;;;;;3.71;92.22;96184.34;5036776;28;1060;-52
2023/01/25 04:30:44;;;;;;;;;;;;;;;3.76;93.03;96184.94;5036573;28;1209;-52
2023/01/25 04:33:10;;;;;;;;;;;;;;;3.92;91.81;96187.47;5036274;28;1449;-52
2023/01/25 04:35:37;;;;;;;;;;;;;;;3.96;91.81;96194.25;5036441;28;1038;-52
2023/01/25 04:38:03;;;;;;;;;;;;;;;4.04;91.54;96194.66;5036392;28;1038;-51
2023/01/25 04:40:29;;;;;;;;;;;;;;;4.08;91.63;96196.16;5036108;28;958;-52
2023/01/25 04:42:55;;;;;;;;;;;;;;;4.13;91.76;96198.50;5036206;28;1105;-52
2023/01/25 04:45:22;;;;;;;;;;;;;;;4.13;90.91;96195.03;5036170;28;1984;-51
2023/01/25 04:47:48;;;;;;;;;;;;;;;4.10;91.31;96194.28;5036115;28;1112;-52
2023/01/25 04:50:15;;;;;;;;;;;;;;;4.08;90.87;96193.53;5035969;28;1100;-52
2023/01/25 04:52:41;;;;;;;;;;;;;;;4.09;91.27;96192.56;5035812;28;1073;-51
2023/01/25 04:55:07;;;;;;;;;;;;;;;4.13;91.25;96197.66;5035962;28;1125;-51
2023/01/25 04:57:33;;;;;;;;;;;;;;;4.10;91.57;96194.28;5035862;28;1033;-51
2023/01/25 04:59:59;;;;;;;;;;;;;;;4.11;91.61;96195.09;5036094;28;1028;-51
2023/01/25 05:02:25;;;;;;;;;;;;;;;4.07;91.92;96196.25;5035875;28;1084;-51
2023/01/25 05:04:51;;;;;;;;;;;;;;;3.91;92.40;96193.72;5035850;28;1995;-51
2023/01/25 05:07:17;;;;;;;;;;;;;;;3.89;92.93;96195.63;5035770;28;993;-51
2023/01/25 05:09:43;;;;;;;;;;;;;;;3.88;92.61;96196.53;5034448;28;1141;-51
2023/01/25 05:12:12;;;;;;;;;;;;;;;3.79;93.06;96192.66;5035881;28;1079;-51
2023/01/25 05:14:38;;;;;;;;;;;;;;;3.68;93.89;96198.63;5035526;28;1037;-52
2023/01/25 05:17:05;;;;;;;;;;;;;;;3.62;94.16;96198.97;5035219;28;1036;-51
2023/01/25 05:19:31;;;;;;;;;;;;;;;3.58;94.15;96199.25;5035528;28;1217;-52
2023/01/25 05:21:58;;;;;;;;;;;;;;;3.59;93.74;96195.69;5035460;28;982;-52
2023/01/25 05:24:24;;;;;;;;;;;;;;;3.55;93.34;96192.38;5035570;28;1910;-52
2023/01/25 05:27:00;;;;;;;;;;;;;;;3.62;93.53;96192.84;5035347;28;1053;-52
2023/01/25 05:29:26;;;;;;;;;;;;;;;3.81;93.48;96192.56;5035458;28;1044;-52
2023/01/25 05:31:53;;;;;;;;;;;;;;;3.81;92.04;96185.47;5035365;28;1574;-52
2023/01/25 05:34:19;;;;;;;;;;;;;;;3.97;91.79;96188.03;5035044;28;1260;-51
2023/01/25 05:36:45;;;;;;;;;;;;;;;4.07;91.54;96193.59;5035186;28;1033;-52
2023/01/25 05:39:11;;;;;;;;;;;;;;;4.14;91.03;96194.09;5035177;28;1037;-52
2023/01/25 05:41:37;;;;;;;;;;;;;;;4.13;90.51;96192.38;5035078;28;918;-52
2023/01/25 05:44:03;;;;;;;;;;;;;;;4.07;89.10;96188.31;5035181;28;1991;-52
2023/01/25 05:46:29;;;;;;;;;;;;;;;4.06;90.67;96192.75;5033754;28;1108;-52
2023/01/25 05:48:55;;;;;;;;;;;;;;;4.08;90.53;96193.53;5033821;28;1109;-52
2023/01/25 05:51:21;;;;;;;;;;;;;;;4.17;89.96;96186.78;5034830;28;1045;-51
2023/01/25 05:53:47;;;;;;;;;;;;;;;4.23;89.47;96196.13;5035157;28;990;-52
2023/01/25 05:56:14;;;;;;;;;;;;;;;4.26;89.43;96182.72;5035012;28;1013;-52
2023/01/25 05:58:39;;;;;;;;;;;;;;;4.27;89.06;96197.66;5034859;28;966;-51
2023/01/25 06:01:06;;;;;;;;;;;;;;;4.26;88.67;96202.09;5033643;28;1675;-52
2023/01/25 06:03:33;;;;;;;;;;;;;;;4.30;88.32;96193.00;5034625;28;1906;-52
2023/01/25 06:06:03;;;;;;;;;;;;;;;4.34;88.58;96185.72;5034667;28;1002;-52
2023/01/25 06:08:30;;;;;;;;;;;;;;;4.24;88.82;96185.44;5034805;28;981;-53
2023/01/25 06:10:56;;;;;;;;;;;;;;;4.22;88.63;96195.28;5034735;28;1068;-52
2023/01/25 06:13:22;;;;;;;;;;;;;;;4.18;88.16;96196.44;5034635;28;980;-52
2023/01/25 06:15:55;;;;;;;;;;;;;;;4.29;88.19;96198.41;5034506;28;1124;-53
2023/01/25 06:18:23;;;;;;;;;;;;;;;4.20;87.97;96188.41;5034390;28;1112;-53
2023/01/25 06:20:49;;;;;;;;;;;;;;;4.17;87.64;96194.72;5034350;28;1026;-52
2023/01/25 06:23:16;;;;;;;;;;;;;;;4.14;88.27;96194.94;5034234;28;2369;-52
2023/01/25 06:25:42;;;;;;;;;;;;;;;4.28;88.46;96186.94;5034391;28;1049;-52
2023/01/25 06:28:08;;;;;;;;;;;;;;;4.26;88.40;96186.19;5032757;28;1049;-52
2023/01/25 06:30:34;;;;;;;;;;;;;;;4.19;88.06;96191.97;5033861;28;1041;-52
2023/01/25 06:33:01;;;;;;;;;;;;;;;4.23;88.29;96190.84;5034176;28;1620;-53
2023/01/25 06:35:27;;;;;;;;;;;;;;;4.22;88.48;96194.44;5033786;28;1304;-53
2023/01/25 06:37:54;;;;;;;;;;;;;;;4.21;87.93;96193.59;5034315;28;1020;-52
2023/01/25 06:40:20;;;;;;;;;;;;;;;4.20;86.96;96199.00;5033929;28;1093;-52
2023/01/25 06:42:46;;;;;;;;;;;;;;;4.23;87.38;96190.84;5033971;28;1042;-52
2023/01/25 06:45:13;;;;;;;;;;;;;;;4.26;87.69;96196.78;5033961;28;1985;-52
2023/01/25 06:47:39;;;;;;;;;;;;;;;4.22;86.25;96197.94;5033846;28;1109;-52
2023/01/25 06:50:06;;;;;;;;;;;;;;;4.21;87.17;96192.72;5033769;28;1236;-53
2023/01/25 06:52:35;;;;;;;;;;;;;;;4.27;86.50;96192.38;5033720;28;1045;-52
2023/01/25 06:55:02;;;;;;;;;;;;;;;4.22;85.80;96199.75;5033718;28;1056;-52
2023/01/25 06:57:30;;;;;;;;;;;;;;;4.27;85.28;96205.59;5033826;28;1136;-52
2023/01/25 06:59:56;;;;;;;;;;;;;;;4.31;83.99;96204.47;5034162;28;1057;-52
2023/01/25 07:02:22;;;;;;;;;;;;;;;4.32;83.91;96198.19;5033511;28;1054;-52
2023/01/25 07:04:49;;;;;;;;;;;;;;;4.42;83.90;96204.63;5033589;28;1926;-52
2023/01/25 07:07:14;;;;;;;;;;;;;;;4.54;84.48;96202.16;5033575;28;1045;-52
2023/01/25 07:09:41;;;;;;;;;;;;;;;4.60;85.27;96193.81;5033600;28;988;-53
2023/01/25 07:12:07;;;;;;;;;;;;;;;4.51;84.46;96197.88;5033526;28;1049;-53
2023/01/25 07:14:33;;;;;;;;;;;;;;;4.48;84.10;96198.09;5033425;28;1054;-53
2023/01/25 07:16:59;;;;;;;;;;;;;;;4.44;83.12;96194.78;5033497;28;1009;-52
2023/01/25 07:19:25;;;;;;;;;;;;;;;4.49;84.89;96197.13;5033388;28;971;-52
2023/01/25 07:21:51;;;;;;;;;;;;;;;4.43;84.97;96198.38;5033634;28;1057;-52
2023/01/25 07:24:19;;;;;;;;;;;;;;;4.52;84.45;96206.69;5033409;28;2024;-53
2023/01/25 07:26:45;;;;;;;;;;;;;;;4.72;83.90;96211.53;5033347;28;1988;-52
2023/01/25 07:29:12;;;;;;;;;;;;;;;4.77;83.73;96206.81;5033464;28;1052;-52
2023/01/25 07:31:38;;;;;;;;;;;;;;;4.80;84.31;96209.25;5033134;28;1130;-52
2023/01/25 07:34:04;;;;;;;;;;;;;;;4.94;84.08;96211.00;5033244;28;1149;-52
2023/01/25 07:36:31;;;;;;;;;;;;;;;4.92;84.92;96210.25;5033207;28;1049;-52
2023/01/25 07:38:57;;;;;;;;;;;;;;;4.79;83.39;96202.25;5033226;28;1096;-52
2023/01/25 07:41:23;;;;;;;;;;;;;;;4.87;83.51;96205.25;5036660;28;1101;-52
2023/01/25 07:43:50;;;;;;;;;;;;;;;4.95;83.22;96209.19;5037278;28;1914;-52
2023/01/25 07:46:16;;;;;;;;;;;;;;;4.87;83.84;96204.41;5037311;28;1153;-52
2023/01/25 07:48:49;;;;;;;;;;;;;;;4.88;84.62;96214.06;5037453;28;970;-52
2023/01/25 07:51:21;;;;;;;;;;;;;;;4.83;82.75;96219.66;5037421;28;969;-51
2023/01/25 07:53:49;;;;;;;;;;;;;;;4.93;84.16;96221.69;5037185;28;1132;-52
2023/01/25 07:56:15;;;;;;;;;;;;;;;5.00;85.53;96220.34;5037229;28;945;-52
2023/01/25 07:58:41;;;;;;;;;;;;;;;5.03;82.99;96215.69;5036913;28;1125;-53
2023/01/25 08:01:14;;;;;;;;;;;;;;;5.11;83.40;96223.16;5037025;28;974;-53
2023/01/25 08:03:40;;;;;;;;;;;;;;;5.16;83.32;96213.09;5036875;28;1915;-52
2023/01/25 08:06:07;;;;;;;;;;;;;;;5.15;82.43;96214.03;5036907;28;1041;-52
2023/01/25 08:08:34;;;;;;;;;;;;;;;5.01;82.46;96216.75;5036940;28;1005;-53
2023/01/25 08:11:05;;;;;;;;;;;;;;;5.09;81.29;96219.75;5036891;28;938;-53
2023/01/25 08:13:31;;;;;;;;;;;;;;;5.05;80.81;96218.25;5036682;28;1065;-53
2023/01/25 08:15:57;;;;;;;;;;;;;;;5.08;80.84;96215.38;5036976;28;965;-51
2023/01/25 08:18:24;;;;;;;;;;;;;;;5.17;81.69;96214.78;5036646;28;1125;-52
2023/01/25 08:20:50;;;;;;;;;;;;;;;5.18;80.36;96221.78;5036614;28;1104;-52
2023/01/25 08:23:16;;;;;;;;;;;;;;;5.18;79.86;96216.50;5036623;28;1997;-51
2023/01/25 08:25:42;;;;;;;;;;;;;;;5.36;79.69;96213.56;5036529;28;914;-52
2023/01/25 08:28:08;;;;;;;;;;;;;;;5.29;80.37;96210.44;5036492;28;914;-52
2023/01/25 08:30:34;;;;;;;;;;;;;;;5.22;80.22;96207.38;5036587;28;957;-53
2023/01/25 08:33:00;;;;;;;;;;;;;;;5.32;78.94;96207.59;5036524;28;1341;-52
2023/01/25 08:35:26;;;;;;;;;;;;;;;5.40;80.13;96197.31;5036163;28;1100;-52
2023/01/25 08:37:52;;;;;;;;;;;;;;;5.39;77.70;96202.75;5036269;28;1093;-52
2023/01/25 08:40:18;;;;;;;;;;;;;;;5.47;80.06;96203.06;5036269;28;1052;-52
2023/01/25 08:42:44;;;;;;;;;;;;;;;5.54;79.19;96203.50;5036087;28;1061;-52
2023/01/25 08:45:10;;;;;;;;;;;;;;;5.42;79.70;96206.03;5036171;28;1985;-52
2023/01/25 08:47:36;;;;;;;;;;;;;;;5.64;80.23;96207.22;5036115;28;981;-53
2023/01/25 08:50:03;;;;;;;;;;;;;;;5.58;77.54;96205.00;5036203;28;1053;-53
2023/01/25 08:52:29;;;;;;;;;;;;;;;5.52;77.84;96200.09;5035292;28;970;-52
2023/01/25 08:54:55;;;;;;;;;;;;;;;5.54;77.87;96195.53;5036060;28;1041;-52
2023/01/25 08:57:21;;;;;;;;;;;;;;;5.37;78.27;96191.38;5035804;28;1100;-52
2023/01/25 08:59:47;;;;;;;;;;;;;;;5.51;78.76;96187.81;5036085;28;1037;-52
2023/01/25 09:02:13;;;;;;;;;;;;;;;5.58;79.92;96192.59;5036086;28;1045;-53
2023/01/25 09:04:39;;;;;;;;;;;;;;;5.57;80.80;96187.38;5035802;28;1983;-53
2023/01/25 09:07:06;;;;;;;;;;;;;;;5.74;79.62;96188.88;5035718;28;1116;-53
2023/01/25 09:09:32;;;;;;;;;;;;;;;5.96;81.83;96186.47;5035720;28;1048;-53
2023/01/25 09:11:58;;;;;;;;;;;;;;;5.97;81.44;96182.84;5035630;28;1058;-52
2023/01/25 09:14:24;;;;;;;;;;;;;;;5.94;78.93;96176.84;5035482;28;1108;-52
2023/01/25 09:16:50;;;;;;;;;;;;;;;6.06;80.81;96178.69;5035960;28;957;-53
2023/01/25 09:19:16;;;;;;;;;;;;;;;6.07;80.06;96172.44;5035575;28;1081;-53
2023/01/25 09:21:42;;;;;;;;;;;;;;;6.26;81.24;96164.00;5035471;28;986;-53
2023/01/25 09:24:08;;;;;;;;;;;;;;;6.21;80.60;96160.81;5035370;28;1988;-53
2023/01/25 09:26:36;;;;;;;;;;;;;;;6.15;79.42;96151.50;5035167;28;1148;-52
2023/01/25 09:29:02;;;;;;;;;;;;;;;6.10;79.70;96145.66;5035514;28;974;-52
2023/01/25 09:31:28;;;;;;;;;;;;;;;6.17;78.92;96148.72;5035135;28;1273;-53
2023/01/25 09:33:56;;;;;;;;;;;;;;;6.44;77.61;96137.91;5035268;28;1090;-53
2023/01/25 09:36:22;;;;;;;;;;;;;;;6.40;77.04;96144.41;5035192;28;1053;-53
2023/01/25 09:38:48;;;;;;;;;;;;;;;6.32;77.70;96142.31;5035208;28;1029;-53
2023/01/25 09:41:32;;;;;;;;;;;;;;;6.33;78.11;96138.69;5034933;28;1085;-52
2023/01/25 09:44:21;;;;;;;;;;;;;;;6.63;78.52;96132.09;5033822;28;1999;-52
2023/01/25 09:46:52;;;;;;;;;;;;;;;6.59;77.16;96128.81;5034906;28;2124;-52
2023/01/25 09:49:38;;;;;;;;;;;;;;;6.57;77.00;96127.25;5034870;28;1128;-52
2023/01/25 09:52:16;;;;;;;;;;;;;;;6.43;76.36;96122.91;5034950;28;1942;-52
2023/01/25 09:54:44;;;;;;;;;;;;;;;6.34;77.71;96121.78;5035042;28;1242;-52
2023/01/25 09:57:16;;;;;;;;;;;;;;;6.41;76.91;96109.78;5034846;28;1100;-52
2023/01/25 09:59:43;;;;;;;;;;;;;;;6.62;75.86;96112.66;5034815;28;958;-52
2023/01/25 10:02:12;;;;;;;;;;;;;;;6.68;76.04;96111.34;5034826;28;1016;-51
2023/01/25 10:04:40;;;;;;;;;;;;;;;6.71;75.80;96113.78;5033703;28;2022;-51
2023/01/25 10:07:28;;;;;;;;;;;;;;;6.52;75.03;96106.31;5034943;28;981;-50
2023/01/25 10:10:02;;;;;;;;;;;;;;;6.56;75.63;96107.78;5034815;28;961;-50
2023/01/25 10:12:32;;;;;;;;;;;;;;;6.88;74.85;96101.88;5034595;28;958;-50
2023/01/25 10:14:58;;;;;;;;;;;;;;;6.78;73.30;96098.22;5034496;28;1318;-50
2023/01/25 10:17:38;;;;;;;;;;;;;;;6.67;71.99;96104.34;5034629;28;997;-50
2023/01/25 10:20:23;;;;;;;;;;;;;;;6.85;74.59;96102.13;5034440;28;1041;-50
2023/01/25 10:22:51;;;;;;;;;;;;;;;6.90;72.27;96093.78;5034398;28;969;-51
2023/01/25 10:25:17;;;;;;;;;;;;;;;6.76;72.83;96094.84;5034158;28;1907;-51
2023/01/25 10:28:13;;;;;;;;;;;;;;;6.87;75.33;96086.03;5034439;28;1044;-52
2023/01/25 10:30:53;;;;;;;;;;;;;;;7.09;72.98;96070.16;4960210;28;1352;-53
2023/01/25 10:33:19;;;;;;;;;;;;;;;6.97;73.50;96066.63;5033586;28;1363;-52
2023/01/25 10:35:46;;;;;;;;;;;;;;;7.26;73.36;96065.38;5034068;28;1033;-52
2023/01/25 10:38:18;;;;;;;;;;;;;;;7.49;73.44;96061.75;5034076;28;1034;-52
2023/01/25 10:40:47;;;;;;;;;;;;;;;7.25;70.60;96061.88;5034005;28;1049;-52
2023/01/25 10:43:16;;;;;;;;;;;;;;;7.21;74.64;96063.91;5033912;28;1184;-52
2023/01/25 10:45:43;;;;;;;;;;;;;;;7.30;75.61;96058.84;5033854;28;1934;-52
2023/01/25 10:48:32;;;;;;;;;;;;;;;7.36;73.59;96058.34;5033934;28;1076;-52
2023/01/25 10:50:58;;;;;;;;;;;;;;;7.29;74.27;96043.84;5028497;28;1838;-52
2023/01/25 10:53:26;;;;;;;;;;;;;;;7.10;73.78;96041.78;5033540;28;1970;-52
2023/01/25 10:56:10;;;;;;;;;;;;;;;6.97;76.08;96031.22;5033768;28;1077;-52
2023/01/25 10:58:38;;;;;;;;;;;;;;;7.01;75.48;96032.66;5033654;28;1045;-52
2023/01/25 11:01:06;;;;;;;;;;;;;;;7.12;74.92;96040.69;5033436;28;1237;-52
2023/01/25 11:03:34;;;;;;;;;;;;;;;6.96;73.43;96026.84;5033667;28;1910;-52
2023/01/25 11:06:00;;;;;;;;;;;;;;;6.86;73.26;96029.38;5033817;28;1001;-52
2023/01/25 11:08:29;;;;;;;;;;;;;;;6.88;73.45;96022.13;5033643;28;962;-52
2023/01/25 11:10:55;;;;;;;;;;;;;;;6.92;72.98;96012.09;5033551;28;1052;-52
2023/01/25 11:13:25;;;;;;;;;;;;;;;7.10;75.04;96009.84;5033148;28;1320;-52
2023/01/25 11:15:53;;;;;;;;;;;;;;;7.10;74.49;96013.34;5033507;28;981;-52
2023/01/25 11:18:22;;;;;;;;;;;;;;;7.03;74.97;96007.66;5033473;28;1111;-52
2023/01/25 11:21:18;;;;;;;;;;;;;;;7.03;75.97;96001.50;5033606;28;962;-52
2023/01/25 11:23:56;;;;;;;;;;;;;;;7.09;74.39;96000.16;5024904;28;1906;-52
2023/01/25 11:29:45;;;;;;;;;;;;;;;7.19;76.42;95980.72;5027704;28;1412;-50
2023/01/25 11:32:20;;;;;;;;;;;;;;;7.24;76.76;95981.19;5032749;28;1368;-50
2023/01/25 11:34:46;;;;;;;;;;;;;;;7.41;74.45;95974.53;5033291;28;1129;-50
2023/01/25 11:37:20;;;;;;;;;;;;;;;7.46;75.16;95978.69;5033394;28;1085;-51
2023/01/25 11:39:54;;;;;;;;;;;;;;;7.55;74.30;95967.28;5033440;28;981;-50
2023/01/25 11:42:41;;;;;;;;;;;;;;;7.63;73.50;95971.03;5033035;28;1233;-50
2023/01/25 11:45:07;;;;;;;;;;;;;;;7.57;73.84;95952.03;5033487;28;1910;-50
2023/01/25 11:47:36;;;;;;;;;;;;;;;7.66;74.40;95953.13;5032977;28;1093;-50
2023/01/25 11:50:14;;;;;;;;;;;;;;;7.69;70.21;95942.25;5033326;28;1053;-50
2023/01/25 11:52:55;;;;;;;;;;;;;;;7.73;72.08;95933.03;5032823;28;1077;-51
2023/01/25 11:55:27;;;;;;;;;;;;;;;7.80;72.67;95929.75;5033288;28;1272;-51
2023/01/25 11:58:02;;;;;;;;;;;;;;;8.13;71.91;95922.59;5033238;28;1037;-51
2023/01/25 12:00:40;;;;;;;;;;;;;;;7.89;71.76;95919.28;5032950;28;1062;-51
2023/01/25 12:03:06;;;;;;;;;;;;;;;7.83;72.89;95920.66;5032769;28;1195;-51
2023/01/25 12:05:32;;;;;;;;;;;;;;;7.94;74.06;95911.78;5032767;28;1981;-51
2023/01/25 12:08:17;;;;;;;;;;;;;;;8.18;71.91;95922.25;5033204;28;954;-51
2023/01/25 12:10:46;;;;;;;;;;;;;;;8.08;71.55;95914.16;5033091;28;1048;-51
2023/01/25 12:13:12;;;;;;;;;;;;;;;8.07;72.72;95915.13;5031871;28;1134;-51
2023/01/25 12:15:44;;;;;;;;;;;;;;;8.12;72.07;95915.59;5032560;28;1110;-51
2023/01/25 12:18:13;;;;;;;;;;;;;;;8.05;68.75;95906.41;5032759;28;965;-51
2023/01/25 12:20:42;;;;;;;;;;;;;;;7.86;70.22;95909.75;5032711;28;1599;-51
2023/01/25 12:23:11;;;;;;;;;;;;;;;7.70;70.62;95898.66;5032770;28;1132;-51
2023/01/25 12:25:40;;;;;;;;;;;;;;;7.76;72.69;95906.16;5032595;28;1913;-51
2023/01/25 12:28:21;;;;;;;;;;;;;;;7.71;73.40;95905.69;5035522;28;1048;-51
2023/01/25 12:30:52;;;;;;;;;;;;;;;7.49;71.85;95898.59;5036405;28;997;-51
2023/01/25 12:33:26;;;;;;;;;;;;;;;7.49;73.24;95891.44;5036272;28;1584;-51
2023/01/25 12:35:56;;;;;;;;;;;;;;;7.51;72.20;95891.31;5036399;28;1259;-51
2023/01/25 12:38:25;;;;;;;;;;;;;;;7.40;72.21;95889.56;5036284;28;1058;-51
2023/01/25 12:40:54;;;;;;;;;;;;;;;7.36;73.13;95890.75;5036328;28;974;-51
2023/01/25 12:43:25;;;;;;;;;;;;;;;7.36;72.30;95893.41;5036172;28;1635;-51
2023/01/25 12:45:52;;;;;;;;;;;;;;;7.34;72.86;95887.34;5036146;28;1079;-51
2023/01/25 12:48:28;;;;;;;;;;;;;;;7.33;69.94;95888.34;5036166;28;1048;-51
2023/01/25 12:50:55;;;;;;;;;;;;;;;7.32;69.89;95890.16;5036222;28;1057;-51
2023/01/25 12:53:39;;;;;;;;;;;;;;;7.40;70.55;95889.56;5036066;28;1056;-51
2023/01/25 12:56:07;;;;;;;;;;;;;;;7.40;69.67;95890.38;5016264;28;1117;-51
2023/01/25 12:58:51;;;;;;;;;;;;;;;7.44;71.01;95893.66;5016357;28;1052;-51
2023/01/25 13:01:29;;;;;;;;;;;;;;;7.44;69.15;95904.28;5016253;28;974;-50
2023/01/25 13:03:58;;;;;;;;;;;;;;;7.54;70.71;95896.41;5018700;28;1922;-51
2023/01/25 13:06:27;;;;;;;;;;;;;;;7.77;71.92;95902.50;5035980;28;982;-51
2023/01/25 13:08:53;;;;;;;;;;;;;;;7.83;70.30;95902.00;5035996;28;966;-51
2023/01/25 13:11:19;;;;;;;;;;;;;;;7.72;69.96;95902.03;5035860;28;1032;-51
2023/01/25 13:13:45;;;;;;;;;;;;;;;7.62;68.48;95899.28;5035602;28;1156;-51
2023/01/25 13:16:29;;;;;;;;;;;;;;;7.69;69.49;95904.97;5035749;28;1017;-51
2023/01/25 13:18:56;;;;;;;;;;;;;;;7.63;69.03;95904.50;5035552;28;1037;-51